Weather at Geneva Cointrin International Airport

Public forecast

Using degrees Celsius for public forecast. Weather courtesy of forecast.io.

Current aviation weather report (METAR) for Geneva Cointrin International Airport

Retrieved 2021/06/23 11:50 UTC (31 minutes ago):

LSGG 231150Z 05007KT 010V090 9999 FEW028 FEW030TCU 23/14 Q1017 TEMPO TS FEW030CB

Aviation forecast (TAF) for Geneva Cointrin International Airport

Retrieved 2021/06/23 12:54 UTC (0 seconds ago):

TAF COR LSGG 231149Z 2312/2418 04008KT 9999 FEW030 TX25/2315Z TN15/2406Z TX23/2415Z TEMPO 2312/2320 25015G30KT 4500 TSRA SCT040CB BECMG 2320/2322 VRB02KT PROB40 TEMPO 2406/2409 TSRA SCT035CB TEMPO 2415/2418 23015G30KT 4500 TSRA SCT030CB